sensor_id;sensor_type;location;lat;lon;timestamp;temperature;humidity
51007;DHT22;37034;47.886;-3.904;2023-06-24T00:01:24;22.50;79.90
51007;DHT22;37034;47.886;-3.904;2023-06-24T00:03:49;22.40;80.10
51007;DHT22;37034;47.886;-3.904;2023-06-24T00:06:19;22.40;80.00
51007;DHT22;37034;47.886;-3.904;2023-06-24T00:08:45;22.40;80.10
51007;DHT22;37034;47.886;-3.904;2023-06-24T00:11:11;22.40;80.90
51007;DHT22;37034;47.886;-3.904;2023-06-24T00:13:37;22.40;80.30
51007;DHT22;37034;47.886;-3.904;2023-06-24T00:16:03;22.30;80.40
51007;DHT22;37034;47.886;-3.904;2023-06-24T00:18:28;22.30;80.60
51007;DHT22;37034;47.886;-3.904;2023-06-24T00:20:55;22.30;80.70
51007;DHT22;37034;47.886;-3.904;2023-06-24T00:23:23;22.20;81.00
51007;DHT22;37034;47.886;-3.904;2023-06-24T00:25:52;22.10;80.80
51007;DHT22;37034;47.886;-3.904;2023-06-24T00:28:18;22.00;81.00
51007;DHT22;37034;47.886;-3.904;2023-06-24T00:30:43;22.00;81.60
51007;DHT22;37034;47.886;-3.904;2023-06-24T00:33:09;22.10;81.00
51007;DHT22;37034;47.886;-3.904;2023-06-24T00:35:37;22.10;81.10
51007;DHT22;37034;47.886;-3.904;2023-06-24T00:38:05;22.00;81.00
51007;DHT22;37034;47.886;-3.904;2023-06-24T00:40:31;22.00;81.00
51007;DHT22;37034;47.886;-3.904;2023-06-24T00:42:58;22.00;81.10
51007;DHT22;37034;47.886;-3.904;2023-06-24T00:45:24;21.90;81.10
51007;DHT22;37034;47.886;-3.904;2023-06-24T00:47:50;21.90;81.20
51007;DHT22;37034;47.886;-3.904;2023-06-24T00:50:17;21.90;81.60
51007;DHT22;37034;47.886;-3.904;2023-06-24T00:52:42;21.90;81.20
51007;DHT22;37034;47.886;-3.904;2023-06-24T00:55:12;21.90;81.40
51007;DHT22;37034;47.886;-3.904;2023-06-24T00:57:59;21.80;81.60
51007;DHT22;37034;47.886;-3.904;2023-06-24T01:00:26;21.70;82.20
51007;DHT22;37034;47.886;-3.904;2023-06-24T01:02:52;21.70;81.70
51007;DHT22;37034;47.886;-3.904;2023-06-24T01:05:18;21.70;81.80
51007;DHT22;37034;47.886;-3.904;2023-06-24T01:07:49;21.70;82.00
51007;DHT22;37034;47.886;-3.904;2023-06-24T01:10:20;21.70;81.90
51007;DHT22;37034;47.886;-3.904;2023-06-24T01:12:47;21.60;81.80
51007;DHT22;37034;47.886;-3.904;2023-06-24T01:15:13;21.60;82.10
51007;DHT22;37034;47.886;-3.904;2023-06-24T01:31:36;21.50;82.30
51007;DHT22;37034;47.886;-3.904;2023-06-24T01:34:34;21.60;81.80
51007;DHT22;37034;47.886;-3.904;2023-06-24T01:37:21;21.50;82.10
51007;DHT22;37034;47.886;-3.904;2023-06-24T01:39:59;21.50;82.20
51007;DHT22;37034;47.886;-3.904;2023-06-24T01:42:27;21.40;82.00
51007;DHT22;37034;47.886;-3.904;2023-06-24T01:44:54;21.40;82.10
51007;DHT22;37034;47.886;-3.904;2023-06-24T01:47:23;21.50;82.10
51007;DHT22;37034;47.886;-3.904;2023-06-24T01:49:54;21.40;82.00
51007;DHT22;37034;47.886;-3.904;2023-06-24T01:52:22;21.40;82.20
51007;DHT22;37034;47.886;-3.904;2023-06-24T01:54:49;21.30;82.10
51007;DHT22;37034;47.886;-3.904;2023-06-24T01:57:17;21.30;82.20
51007;DHT22;37034;47.886;-3.904;2023-06-24T01:59:45;21.30;82.40
51007;DHT22;37034;47.886;-3.904;2023-06-24T02:02:12;21.20;82.30
51007;DHT22;37034;47.886;-3.904;2023-06-24T02:04:39;21.20;82.40
51007;DHT22;37034;47.886;-3.904;2023-06-24T02:07:06;21.20;82.30
51007;DHT22;37034;47.886;-3.904;2023-06-24T02:09:33;21.10;82.40
51007;DHT22;37034;47.886;-3.904;2023-06-24T02:12:01;21.10;82.50
51007;DHT22;37034;47.886;-3.904;2023-06-24T02:14:29;21.10;82.60
51007;DHT22;37034;47.886;-3.904;2023-06-24T02:16:56;21.10;82.50
51007;DHT22;37034;47.886;-3.904;2023-06-24T02:19:27;21.00;82.70
51007;DHT22;37034;47.886;-3.904;2023-06-24T02:21:54;21.00;82.60
51007;DHT22;37034;47.886;-3.904;2023-06-24T02:24:21;21.00;82.80
51007;DHT22;37034;47.886;-3.904;2023-06-24T02:26:49;20.90;82.60
51007;DHT22;37034;47.886;-3.904;2023-06-24T02:29:17;21.00;82.60
51007;DHT22;37034;47.886;-3.904;2023-06-24T02:31:43;20.90;82.60
51007;DHT22;37034;47.886;-3.904;2023-06-24T02:34:09;20.90;82.60
51007;DHT22;37034;47.886;-3.904;2023-06-24T02:36:35;20.90;82.60
51007;DHT22;37034;47.886;-3.904;2023-06-24T02:39:01;20.90;82.60
51007;DHT22;37034;47.886;-3.904;2023-06-24T02:41:26;20.90;82.70
51007;DHT22;37034;47.886;-3.904;2023-06-24T02:43:52;20.80;82.50
51007;DHT22;37034;47.886;-3.904;2023-06-24T02:46:19;20.80;82.60
51007;DHT22;37034;47.886;-3.904;2023-06-24T02:48:45;20.80;83.10
51007;DHT22;37034;47.886;-3.904;2023-06-24T02:51:11;20.70;82.50
51007;DHT22;37034;47.886;-3.904;2023-06-24T02:53:38;20.70;82.70
51007;DHT22;37034;47.886;-3.904;2023-06-24T02:56:05;20.70;82.90
51007;DHT22;37034;47.886;-3.904;2023-06-24T02:58:31;20.70;82.50
51007;DHT22;37034;47.886;-3.904;2023-06-24T03:01:00;20.60;82.60
51007;DHT22;37034;47.886;-3.904;2023-06-24T03:03:28;20.60;82.70
51007;DHT22;37034;47.886;-3.904;2023-06-24T03:05:55;20.50;82.70
51007;DHT22;37034;47.886;-3.904;2023-06-24T03:08:24;20.50;82.70
51007;DHT22;37034;47.886;-3.904;2023-06-24T03:10:57;20.50;82.90
51007;DHT22;37034;47.886;-3.904;2023-06-24T03:13:23;20.40;82.90
51007;DHT22;37034;47.886;-3.904;2023-06-24T03:15:49;20.50;82.80
51007;DHT22;37034;47.886;-3.904;2023-06-24T03:18:16;20.40;82.80
51007;DHT22;37034;47.886;-3.904;2023-06-24T03:20:42;20.40;82.90
51007;DHT22;37034;47.886;-3.904;2023-06-24T03:23:08;20.40;82.80
51007;DHT22;37034;47.886;-3.904;2023-06-24T03:25:34;20.40;82.80
51007;DHT22;37034;47.886;-3.904;2023-06-24T03:28:00;20.40;82.70
51007;DHT22;37034;47.886;-3.904;2023-06-24T03:30:26;20.40;82.70
51007;DHT22;37034;47.886;-3.904;2023-06-24T03:32:52;20.40;82.70
51007;DHT22;37034;47.886;-3.904;2023-06-24T03:35:18;20.50;82.80
51007;DHT22;37034;47.886;-3.904;2023-06-24T03:37:44;20.40;82.50
51007;DHT22;37034;47.886;-3.904;2023-06-24T03:40:10;20.40;82.60
51007;DHT22;37034;47.886;-3.904;2023-06-24T03:42:35;20.40;82.70
51007;DHT22;37034;47.886;-3.904;2023-06-24T03:45:03;20.30;82.70
51007;DHT22;37034;47.886;-3.904;2023-06-24T03:47:29;20.30;82.70
51007;DHT22;37034;47.886;-3.904;2023-06-24T03:49:54;20.30;82.70
51007;DHT22;37034;47.886;-3.904;2023-06-24T03:52:20;20.30;82.70
51007;DHT22;37034;47.886;-3.904;2023-06-24T03:54:45;20.30;82.70
51007;DHT22;37034;47.886;-3.904;2023-06-24T03:57:13;20.30;82.80
51007;DHT22;37034;47.886;-3.904;2023-06-24T03:59:38;20.20;82.80
51007;DHT22;37034;47.886;-3.904;2023-06-24T04:02:05;20.20;83.00
51007;DHT22;37034;47.886;-3.904;2023-06-24T04:04:36;20.20;82.80
51007;DHT22;37034;47.886;-3.904;2023-06-24T04:07:02;20.20;83.00
51007;DHT22;37034;47.886;-3.904;2023-06-24T04:09:31;20.30;83.00
51007;DHT22;37034;47.886;-3.904;2023-06-24T04:11:57;20.30;82.90
51007;DHT22;37034;47.886;-3.904;2023-06-24T04:14:22;20.30;82.80
51007;DHT22;37034;47.886;-3.904;2023-06-24T04:16:48;20.30;82.80
51007;DHT22;37034;47.886;-3.904;2023-06-24T04:19:13;20.30;82.80
51007;DHT22;37034;47.886;-3.904;2023-06-24T04:21:39;20.40;82.70
51007;DHT22;37034;47.886;-3.904;2023-06-24T04:24:05;20.30;82.60
51007;DHT22;37034;47.886;-3.904;2023-06-24T04:26:30;20.30;82.60
51007;DHT22;37034;47.886;-3.904;2023-06-24T04:28:56;20.30;82.80
51007;DHT22;37034;47.886;-3.904;2023-06-24T04:31:22;20.40;82.70
51007;DHT22;37034;47.886;-3.904;2023-06-24T04:33:47;20.30;82.70
51007;DHT22;37034;47.886;-3.904;2023-06-24T04:36:13;20.30;82.80
51007;DHT22;37034;47.886;-3.904;2023-06-24T04:38:38;20.30;82.60
51007;DHT22;37034;47.886;-3.904;2023-06-24T04:41:04;20.40;82.70
51007;DHT22;37034;47.886;-3.904;2023-06-24T04:43:30;20.40;82.60
51007;DHT22;37034;47.886;-3.904;2023-06-24T04:45:55;20.40;82.50
51007;DHT22;37034;47.886;-3.904;2023-06-24T04:48:25;20.40;82.60
51007;DHT22;37034;47.886;-3.904;2023-06-24T04:50:50;20.30;82.60
51007;DHT22;37034;47.886;-3.904;2023-06-24T04:53:16;20.30;82.70
51007;DHT22;37034;47.886;-3.904;2023-06-24T04:55:42;20.30;82.80
51007;DHT22;37034;47.886;-3.904;2023-06-24T04:58:07;20.40;82.80
51007;DHT22;37034;47.886;-3.904;2023-06-24T05:00:33;20.40;82.70
51007;DHT22;37034;47.886;-3.904;2023-06-24T05:02:59;20.40;82.50
51007;DHT22;37034;47.886;-3.904;2023-06-24T05:05:25;20.40;82.70
51007;DHT22;37034;47.886;-3.904;2023-06-24T05:07:51;20.50;82.70
51007;DHT22;37034;47.886;-3.904;2023-06-24T05:10:16;20.50;82.70
51007;DHT22;37034;47.886;-3.904;2023-06-24T05:12:42;20.60;82.50
51007;DHT22;37034;47.886;-3.904;2023-06-24T05:15:08;20.50;82.60
51007;DHT22;37034;47.886;-3.904;2023-06-24T05:17:33;20.50;82.70
51007;DHT22;37034;47.886;-3.904;2023-06-24T05:19:59;20.50;82.90
51007;DHT22;37034;47.886;-3.904;2023-06-24T05:22:25;20.50;82.90
51007;DHT22;37034;47.886;-3.904;2023-06-24T05:24:51;20.60;82.90
51007;DHT22;37034;47.886;-3.904;2023-06-24T05:27:16;20.60;82.70
51007;DHT22;37034;47.886;-3.904;2023-06-24T05:29:43;20.60;82.70
51007;DHT22;37034;47.886;-3.904;2023-06-24T05:32:08;20.80;82.80
51007;DHT22;37034;47.886;-3.904;2023-06-24T05:34:34;20.80;82.60
51007;DHT22;37034;47.886;-3.904;2023-06-24T05:37:00;20.80;82.50
51007;DHT22;37034;47.886;-3.904;2023-06-24T05:39:26;20.80;82.60
51007;DHT22;37034;47.886;-3.904;2023-06-24T05:41:51;20.90;82.60
51007;DHT22;37034;47.886;-3.904;2023-06-24T05:44:17;20.90;82.50
51007;DHT22;37034;47.886;-3.904;2023-06-24T05:46:44;21.00;82.60
51007;DHT22;37034;47.886;-3.904;2023-06-24T05:49:10;21.00;82.50
51007;DHT22;37034;47.886;-3.904;2023-06-24T05:51:37;21.10;82.60
51007;DHT22;37034;47.886;-3.904;2023-06-24T05:54:02;21.10;82.60
51007;DHT22;37034;47.886;-3.904;2023-06-24T05:56:28;21.10;82.50
51007;DHT22;37034;47.886;-3.904;2023-06-24T05:58:54;21.20;82.50
51007;DHT22;37034;47.886;-3.904;2023-06-24T06:01:20;21.30;82.70
51007;DHT22;37034;47.886;-3.904;2023-06-24T06:03:46;21.30;82.20
51007;DHT22;37034;47.886;-3.904;2023-06-24T06:06:11;21.30;82.60
51007;DHT22;37034;47.886;-3.904;2023-06-24T06:08:37;21.40;83.00
51007;DHT22;37034;47.886;-3.904;2023-06-24T06:11:03;21.60;82.30
51007;DHT22;37034;47.886;-3.904;2023-06-24T06:13:29;21.70;82.50
51007;DHT22;37034;47.886;-3.904;2023-06-24T06:15:55;21.70;82.20
51007;DHT22;37034;47.886;-3.904;2023-06-24T06:18:21;21.80;82.30
51007;DHT22;37034;47.886;-3.904;2023-06-24T06:20:47;21.90;81.50
51007;DHT22;37034;47.886;-3.904;2023-06-24T06:23:12;22.00;82.20
51007;DHT22;37034;47.886;-3.904;2023-06-24T06:25:38;22.10;82.00
51007;DHT22;37034;47.886;-3.904;2023-06-24T06:28:04;22.20;82.00
51007;DHT22;37034;47.886;-3.904;2023-06-24T06:30:30;22.30;81.30
51007;DHT22;37034;47.886;-3.904;2023-06-24T06:32:56;22.40;81.70
51007;DHT22;37034;47.886;-3.904;2023-06-24T06:35:21;22.50;81.40
51007;DHT22;37034;47.886;-3.904;2023-06-24T06:37:47;22.70;81.40
51007;DHT22;37034;47.886;-3.904;2023-06-24T06:40:21;22.80;81.40
51007;DHT22;37034;47.886;-3.904;2023-06-24T06:42:47;22.90;80.60
51007;DHT22;37034;47.886;-3.904;2023-06-24T06:45:12;23.10;80.90
51007;DHT22;37034;47.886;-3.904;2023-06-24T06:47:38;23.20;81.10
51007;DHT22;37034;47.886;-3.904;2023-06-24T06:50:06;23.20;80.70
51007;DHT22;37034;47.886;-3.904;2023-06-24T06:52:33;23.30;80.80
51007;DHT22;37034;47.886;-3.904;2023-06-24T06:54:59;23.40;80.20
51007;DHT22;37034;47.886;-3.904;2023-06-24T06:57:25;23.50;80.60
51007;DHT22;37034;47.886;-3.904;2023-06-24T06:59:51;23.60;80.50
51007;DHT22;37034;47.886;-3.904;2023-06-24T07:02:18;23.80;79.80
51007;DHT22;37034;47.886;-3.904;2023-06-24T07:04:44;23.90;80.20
51007;DHT22;37034;47.886;-3.904;2023-06-24T07:07:10;24.00;79.60
51007;DHT22;37034;47.886;-3.904;2023-06-24T07:09:37;24.20;80.10
51007;DHT22;37034;47.886;-3.904;2023-06-24T07:12:03;24.20;79.50
51007;DHT22;37034;47.886;-3.904;2023-06-24T07:14:28;24.30;79.80
51007;DHT22;37034;47.886;-3.904;2023-06-24T07:16:54;24.40;80.00
51007;DHT22;37034;47.886;-3.904;2023-06-24T07:19:20;24.50;79.00
51007;DHT22;37034;47.886;-3.904;2023-06-24T07:21:45;24.60;78.70
51007;DHT22;37034;47.886;-3.904;2023-06-24T07:24:11;24.70;79.30
51007;DHT22;37034;47.886;-3.904;2023-06-24T07:26:37;24.80;80.20
51007;DHT22;37034;47.886;-3.904;2023-06-24T07:29:06;25.00;79.90
51007;DHT22;37034;47.886;-3.904;2023-06-24T07:31:32;25.10;78.30
51007;DHT22;37034;47.886;-3.904;2023-06-24T07:33:58;25.20;78.70
51007;DHT22;37034;47.886;-3.904;2023-06-24T07:36:23;25.30;78.20
51007;DHT22;37034;47.886;-3.904;2023-06-24T07:38:49;25.30;78.40
51007;DHT22;37034;47.886;-3.904;2023-06-24T07:41:14;25.40;78.30
51007;DHT22;37034;47.886;-3.904;2023-06-24T07:43:40;25.50;77.90
51007;DHT22;37034;47.886;-3.904;2023-06-24T07:46:06;25.50;77.50
51007;DHT22;37034;47.886;-3.904;2023-06-24T07:48:31;25.60;77.40
51007;DHT22;37034;47.886;-3.904;2023-06-24T07:50:57;25.70;77.40
51007;DHT22;37034;47.886;-3.904;2023-06-24T07:53:23;25.70;77.50
51007;DHT22;37034;47.886;-3.904;2023-06-24T07:55:49;25.80;76.30
51007;DHT22;37034;47.886;-3.904;2023-06-24T07:58:14;25.90;76.40
51007;DHT22;37034;47.886;-3.904;2023-06-24T08:00:40;25.90;76.70
51007;DHT22;37034;47.886;-3.904;2023-06-24T08:03:06;26.00;76.30
51007;DHT22;37034;47.886;-3.904;2023-06-24T08:05:31;26.10;76.80
51007;DHT22;37034;47.886;-3.904;2023-06-24T08:07:57;26.20;76.60
51007;DHT22;37034;47.886;-3.904;2023-06-24T08:10:23;26.30;76.20
51007;DHT22;37034;47.886;-3.904;2023-06-24T08:12:48;26.40;75.90
51007;DHT22;37034;47.886;-3.904;2023-06-24T08:15:14;26.50;76.80
51007;DHT22;37034;47.886;-3.904;2023-06-24T08:17:40;26.70;76.60
51007;DHT22;37034;47.886;-3.904;2023-06-24T08:20:06;26.80;75.90
51007;DHT22;37034;47.886;-3.904;2023-06-24T08:22:32;26.80;76.10
51007;DHT22;37034;47.886;-3.904;2023-06-24T08:24:58;27.00;75.80
51007;DHT22;37034;47.886;-3.904;2023-06-24T08:27:24;27.00;75.70
51007;DHT22;37034;47.886;-3.904;2023-06-24T08:29:49;27.10;75.80
51007;DHT22;37034;47.886;-3.904;2023-06-24T08:32:15;27.10;75.30
51007;DHT22;37034;47.886;-3.904;2023-06-24T08:34:40;27.20;75.70
51007;DHT22;37034;47.886;-3.904;2023-06-24T08:37:06;27.40;75.20
51007;DHT22;37034;47.886;-3.904;2023-06-24T08:39:32;27.50;75.10
51007;DHT22;37034;47.886;-3.904;2023-06-24T08:41:57;27.50;74.50
51007;DHT22;37034;47.886;-3.904;2023-06-24T08:44:23;27.60;75.00
51007;DHT22;37034;47.886;-3.904;2023-06-24T08:46:49;27.80;74.90
51007;DHT22;37034;47.886;-3.904;2023-06-24T08:52:25;28.00;74.70
51007;DHT22;37034;47.886;-3.904;2023-06-24T08:54:52;28.00;73.40
51007;DHT22;37034;47.886;-3.904;2023-06-24T08:57:20;28.10;73.80
51007;DHT22;37034;47.886;-3.904;2023-06-24T08:59:46;28.20;73.60
51007;DHT22;37034;47.886;-3.904;2023-06-24T09:02:12;28.30;71.90
51007;DHT22;37034;47.886;-3.904;2023-06-24T09:04:40;28.40;72.80
51007;DHT22;37034;47.886;-3.904;2023-06-24T09:07:05;28.40;72.00
51007;DHT22;37034;47.886;-3.904;2023-06-24T09:09:31;28.50;73.20
51007;DHT22;37034;47.886;-3.904;2023-06-24T09:11:59;28.70;71.90
51007;DHT22;37034;47.886;-3.904;2023-06-24T09:14:26;28.80;72.10
51007;DHT22;37034;47.886;-3.904;2023-06-24T09:16:54;28.90;72.60
51007;DHT22;37034;47.886;-3.904;2023-06-24T09:19:24;29.00;72.50
51007;DHT22;37034;47.886;-3.904;2023-06-24T09:21:50;29.10;71.80
51007;DHT22;37034;47.886;-3.904;2023-06-24T09:24:18;29.10;70.30
51007;DHT22;37034;47.886;-3.904;2023-06-24T09:26:44;29.10;69.40
51007;DHT22;37034;47.886;-3.904;2023-06-24T09:29:12;29.00;67.70
51007;DHT22;37034;47.886;-3.904;2023-06-24T09:31:48;29.00;67.70
51007;DHT22;37034;47.886;-3.904;2023-06-24T09:34:15;29.00;66.90
51007;DHT22;37034;47.886;-3.904;2023-06-24T09:36:44;29.00;68.40
51007;DHT22;37034;47.886;-3.904;2023-06-24T09:39:11;29.10;68.00
51007;DHT22;37034;47.886;-3.904;2023-06-24T09:41:40;29.20;67.70
51007;DHT22;37034;47.886;-3.904;2023-06-24T09:44:08;29.30;66.70
51007;DHT22;37034;47.886;-3.904;2023-06-24T09:46:36;29.40;67.80
51007;DHT22;37034;47.886;-3.904;2023-06-24T09:49:05;29.50;66.50
51007;DHT22;37034;47.886;-3.904;2023-06-24T09:51:38;29.60;66.20
51007;DHT22;37034;47.886;-3.904;2023-06-24T09:54:08;29.60;66.10
51007;DHT22;37034;47.886;-3.904;2023-06-24T09:56:58;29.70;64.60
51007;DHT22;37034;47.886;-3.904;2023-06-24T09:59:25;29.70;65.50
51007;DHT22;37034;47.886;-3.904;2023-06-24T10:01:53;29.80;64.90
51007;DHT22;37034;47.886;-3.904;2023-06-24T10:04:20;29.70;65.00
51007;DHT22;37034;47.886;-3.904;2023-06-24T10:06:49;29.80;64.90
51007;DHT22;37034;47.886;-3.904;2023-06-24T10:09:15;29.80;63.80
51007;DHT22;37034;47.886;-3.904;2023-06-24T10:11:45;30.00;64.40
51007;DHT22;37034;47.886;-3.904;2023-06-24T10:14:10;30.00;62.90
51007;DHT22;37034;47.886;-3.904;2023-06-24T10:16:36;30.00;63.90
51007;DHT22;37034;47.886;-3.904;2023-06-24T10:19:02;30.10;62.20
51007;DHT22;37034;47.886;-3.904;2023-06-24T10:21:45;30.30;62.70
51007;DHT22;37034;47.886;-3.904;2023-06-24T10:24:11;30.30;62.50
51007;DHT22;37034;47.886;-3.904;2023-06-24T10:26:39;30.40;63.80
51007;DHT22;37034;47.886;-3.904;2023-06-24T10:37:11;30.80;61.80
51007;DHT22;37034;47.886;-3.904;2023-06-24T10:45:17;30.90;61.00
51007;DHT22;37034;47.886;-3.904;2023-06-24T10:47:50;31.10;61.10
51007;DHT22;37034;47.886;-3.904;2023-06-24T10:50:21;31.20;60.20
51007;DHT22;37034;47.886;-3.904;2023-06-24T10:52:50;31.20;61.30
51007;DHT22;37034;47.886;-3.904;2023-06-24T10:55:19;31.30;59.90
51007;DHT22;37034;47.886;-3.904;2023-06-24T10:57:45;31.20;60.50
51007;DHT22;37034;47.886;-3.904;2023-06-24T11:00:12;31.30;60.50
51007;DHT22;37034;47.886;-3.904;2023-06-24T11:02:38;31.40;59.60
51007;DHT22;37034;47.886;-3.904;2023-06-24T11:05:05;31.40;60.80
51007;DHT22;37034;47.886;-3.904;2023-06-24T11:07:32;31.60;60.50
51007;DHT22;37034;47.886;-3.904;2023-06-24T11:10:07;31.60;58.90
51007;DHT22;37034;47.886;-3.904;2023-06-24T11:12:35;31.50;59.00
51007;DHT22;37034;47.886;-3.904;2023-06-24T11:15:06;31.50;58.90
51007;DHT22;37034;47.886;-3.904;2023-06-24T11:17:33;31.50;59.20
51007;DHT22;37034;47.886;-3.904;2023-06-24T11:19:59;31.60;59.00
51007;DHT22;37034;47.886;-3.904;2023-06-24T11:22:26;31.70;58.90
51007;DHT22;37034;47.886;-3.904;2023-06-24T11:24:53;31.70;57.60
51007;DHT22;37034;47.886;-3.904;2023-06-24T11:27:24;31.80;57.80
51007;DHT22;37034;47.886;-3.904;2023-06-24T11:29:52;31.70;57.90
51007;DHT22;37034;47.886;-3.904;2023-06-24T11:32:18;31.70;58.00
51007;DHT22;37034;47.886;-3.904;2023-06-24T11:34:45;31.70;57.10
51007;DHT22;37034;47.886;-3.904;2023-06-24T11:37:12;31.80;58.30
51007;DHT22;37034;47.886;-3.904;2023-06-24T11:39:38;31.90;56.60
51007;DHT22;37034;47.886;-3.904;2023-06-24T11:42:06;32.10;57.90
51007;DHT22;37034;47.886;-3.904;2023-06-24T11:44:33;32.00;56.80
51007;DHT22;37034;47.886;-3.904;2023-06-24T11:47:06;32.10;56.70
51007;DHT22;37034;47.886;-3.904;2023-06-24T11:49:32;32.00;55.20
51007;DHT22;37034;47.886;-3.904;2023-06-24T11:51:58;32.10;56.30
51007;DHT22;37034;47.886;-3.904;2023-06-24T11:54:23;32.10;55.20
51007;DHT22;37034;47.886;-3.904;2023-06-24T11:56:52;32.10;55.40
51007;DHT22;37034;47.886;-3.904;2023-06-24T11:59:21;32.00;54.10
51007;DHT22;37034;47.886;-3.904;2023-06-24T12:01:58;32.00;55.40
51007;DHT22;37034;47.886;-3.904;2023-06-24T12:04:30;32.10;54.80
51007;DHT22;37034;47.886;-3.904;2023-06-24T12:06:57;32.10;54.90
51007;DHT22;37034;47.886;-3.904;2023-06-24T12:09:23;32.20;55.40
51007;DHT22;37034;47.886;-3.904;2023-06-24T12:11:49;32.20;55.40
51007;DHT22;37034;47.886;-3.904;2023-06-24T12:14:15;32.30;54.10
51007;DHT22;37034;47.886;-3.904;2023-06-24T12:16:40;32.30;55.10
51007;DHT22;37034;47.886;-3.904;2023-06-24T12:19:07;32.40;55.00
51007;DHT22;37034;47.886;-3.904;2023-06-24T12:21:33;32.50;54.00
51007;DHT22;37034;47.886;-3.904;2023-06-24T12:23:59;32.60;54.70
51007;DHT22;37034;47.886;-3.904;2023-06-24T12:26:24;32.60;54.00
51007;DHT22;37034;47.886;-3.904;2023-06-24T12:28:50;32.60;53.80
51007;DHT22;37034;47.886;-3.904;2023-06-24T12:31:16;32.60;54.00
51007;DHT22;37034;47.886;-3.904;2023-06-24T12:33:41;32.60;53.70
51007;DHT22;37034;47.886;-3.904;2023-06-24T12:36:07;32.60;53.50
51007;DHT22;37034;47.886;-3.904;2023-06-24T12:38:33;32.70;54.20
51007;DHT22;37034;47.886;-3.904;2023-06-24T12:40:58;32.80;54.40
51007;DHT22;37034;47.886;-3.904;2023-06-24T12:43:24;32.80;53.70
51007;DHT22;37034;47.886;-3.904;2023-06-24T12:45:50;32.80;53.80
51007;DHT22;37034;47.886;-3.904;2023-06-24T12:48:16;32.70;53.50
51007;DHT22;37034;47.886;-3.904;2023-06-24T12:50:42;32.80;54.10
51007;DHT22;37034;47.886;-3.904;2023-06-24T12:53:08;32.90;53.70
51007;DHT22;37034;47.886;-3.904;2023-06-24T12:55:36;32.90;54.40
51007;DHT22;37034;47.886;-3.904;2023-06-24T12:58:02;33.00;54.20
51007;DHT22;37034;47.886;-3.904;2023-06-24T13:00:27;33.00;54.20
51007;DHT22;37034;47.886;-3.904;2023-06-24T13:02:53;33.10;53.50
51007;DHT22;37034;47.886;-3.904;2023-06-24T13:05:19;33.20;54.10
51007;DHT22;37034;47.886;-3.904;2023-06-24T13:07:45;33.30;54.20
51007;DHT22;37034;47.886;-3.904;2023-06-24T13:10:11;33.40;53.80
51007;DHT22;37034;47.886;-3.904;2023-06-24T13:12:37;33.50;53.30
51007;DHT22;37034;47.886;-3.904;2023-06-24T13:15:04;33.50;53.20
51007;DHT22;37034;47.886;-3.904;2023-06-24T13:17:30;33.30;52.50
51007;DHT22;37034;47.886;-3.904;2023-06-24T13:19:56;33.20;52.20
51007;DHT22;37034;47.886;-3.904;2023-06-24T13:22:23;33.00;52.90
51007;DHT22;37034;47.886;-3.904;2023-06-24T13:24:49;33.00;52.90
51007;DHT22;37034;47.886;-3.904;2023-06-24T13:27:14;33.00;52.50
51007;DHT22;37034;47.886;-3.904;2023-06-24T13:29:40;33.00;52.90
51007;DHT22;37034;47.886;-3.904;2023-06-24T13:32:06;33.00;53.30
51007;DHT22;37034;47.886;-3.904;2023-06-24T13:34:32;33.10;53.50
51007;DHT22;37034;47.886;-3.904;2023-06-24T13:36:57;33.10;53.00
51007;DHT22;37034;47.886;-3.904;2023-06-24T13:39:23;33.00;53.40
51007;DHT22;37034;47.886;-3.904;2023-06-24T13:41:50;33.00;54.00
51007;DHT22;37034;47.886;-3.904;2023-06-24T13:44:15;33.10;53.90
51007;DHT22;37034;47.886;-3.904;2023-06-24T13:46:41;33.00;52.90
51007;DHT22;37034;47.886;-3.904;2023-06-24T13:49:07;32.90;53.30
51007;DHT22;37034;47.886;-3.904;2023-06-24T13:51:33;32.90;53.20
51007;DHT22;37034;47.886;-3.904;2023-06-24T13:53:59;33.00;54.10
51007;DHT22;37034;47.886;-3.904;2023-06-24T13:56:25;33.10;54.30
51007;DHT22;37034;47.886;-3.904;2023-06-24T13:58:52;33.30;54.10
51007;DHT22;37034;47.886;-3.904;2023-06-24T14:01:19;33.40;53.20
51007;DHT22;37034;47.886;-3.904;2023-06-24T14:03:45;33.50;53.60
51007;DHT22;37034;47.886;-3.904;2023-06-24T14:06:13;33.40;52.00
51007;DHT22;37034;47.886;-3.904;2023-06-24T14:08:40;33.30;53.60
51007;DHT22;37034;47.886;-3.904;2023-06-24T14:11:05;33.20;52.50
51007;DHT22;37034;47.886;-3.904;2023-06-24T14:13:31;33.00;53.50
51007;DHT22;37034;47.886;-3.904;2023-06-24T14:15:57;33.00;53.10
51007;DHT22;37034;47.886;-3.904;2023-06-24T14:18:23;33.00;53.20
51007;DHT22;37034;47.886;-3.904;2023-06-24T14:20:49;33.00;53.20
51007;DHT22;37034;47.886;-3.904;2023-06-24T14:23:14;33.00;54.50
51007;DHT22;37034;47.886;-3.904;2023-06-24T14:25:40;33.00;53.60
51007;DHT22;37034;47.886;-3.904;2023-06-24T14:28:06;33.10;53.40
51007;DHT22;37034;47.886;-3.904;2023-06-24T14:30:32;33.00;54.00
51007;DHT22;37034;47.886;-3.904;2023-06-24T14:32:58;33.00;53.90
51007;DHT22;37034;47.886;-3.904;2023-06-24T14:35:24;33.00;54.10
51007;DHT22;37034;47.886;-3.904;2023-06-24T14:37:50;33.10;53.30
51007;DHT22;37034;47.886;-3.904;2023-06-24T14:40:16;33.00;53.90
51007;DHT22;37034;47.886;-3.904;2023-06-24T14:42:41;33.00;53.50
51007;DHT22;37034;47.886;-3.904;2023-06-24T14:45:07;33.00;53.40
51007;DHT22;37034;47.886;-3.904;2023-06-24T14:47:33;33.00;53.60
51007;DHT22;37034;47.886;-3.904;2023-06-24T14:49:59;33.00;53.60
51007;DHT22;37034;47.886;-3.904;2023-06-24T14:52:24;33.10;54.20
51007;DHT22;37034;47.886;-3.904;2023-06-24T14:54:50;33.20;54.10
51007;DHT22;37034;47.886;-3.904;2023-06-24T14:57:16;33.30;53.70
51007;DHT22;37034;47.886;-3.904;2023-06-24T14:59:42;33.30;53.70
51007;DHT22;37034;47.886;-3.904;2023-06-24T15:02:08;33.30;53.80
51007;DHT22;37034;47.886;-3.904;2023-06-24T15:04:35;33.30;52.60
51007;DHT22;37034;47.886;-3.904;2023-06-24T15:07:01;33.20;53.50
51007;DHT22;37034;47.886;-3.904;2023-06-24T15:09:27;33.00;53.50
51007;DHT22;37034;47.886;-3.904;2023-06-24T15:11:52;33.10;53.50
51007;DHT22;37034;47.886;-3.904;2023-06-24T15:14:18;33.10;53.30
51007;DHT22;37034;47.886;-3.904;2023-06-24T15:16:44;33.00;52.60
51007;DHT22;37034;47.886;-3.904;2023-06-24T15:19:10;32.90;52.90
51007;DHT22;37034;47.886;-3.904;2023-06-24T15:21:35;32.90;53.60
51007;DHT22;37034;47.886;-3.904;2023-06-24T15:24:01;32.90;53.50
51007;DHT22;37034;47.886;-3.904;2023-06-24T15:26:27;33.00;54.00
51007;DHT22;37034;47.886;-3.904;2023-06-24T15:28:52;33.00;53.50
51007;DHT22;37034;47.886;-3.904;2023-06-24T15:31:19;33.00;53.80
51007;DHT22;37034;47.886;-3.904;2023-06-24T15:33:45;33.10;53.70
51007;DHT22;37034;47.886;-3.904;2023-06-24T15:36:10;33.20;53.70
51007;DHT22;37034;47.886;-3.904;2023-06-24T15:38:36;33.10;53.80
51007;DHT22;37034;47.886;-3.904;2023-06-24T15:41:02;33.20;53.20
51007;DHT22;37034;47.886;-3.904;2023-06-24T15:43:28;33.00;53.00